Terminal Aerodrome Forecast
Issued by NWS Central Illinois

Home | Current Version | Previous Version | Text Only | Print | Product List | Glossary On
Versions: 1 2 3 4 5 6 7 8 9 10 11 12 13 14 15 16 17 18 19
000
FTUS43 KILX 310500
TAFPIA
TAF
KPIA 310527Z 3106/0106 20003KT P6SM SCT040 BKN250
     FM310800 20003KT 5SM BR SCT040
      TEMPO 3109/3113 2SM BR SCT005
     FM311400 21007KT P6SM SCT025
     FM010000 18005KT P6SM BKN250=

USA.gov is the U.S. government's official web portal to all federal, state and local government web resources and services.